Time;durP1;ratioP1;P1;durP2;ratioP2;P2;SDS_P1;SDS_P2;PMS_P1;PMS_P2;Temp;Humidity;BMP_temperature;BMP_pressure;BME280_temperature;BME280_humidity;BME280_pressure;Samples;Min_cycle;Max_cycle;Signal;HPM_P1;HPM_P2
2023/10/17 00:02:12;;;;;;;;;;;16.00;99.90;;;;;;5112681;28;19912;-70
2023/10/17 00:04:41;;;;;;;;;;;16.40;99.90;;;;;;5112021;28;19962;-72
2023/10/17 00:07:08;;;;;;;;;;;16.60;99.90;;;;;;5095383;28;19915;-70
2023/10/17 00:09:39;;;;;;;;;;;16.80;99.90;;;;;;5107804;28;19912;-72
2023/10/17 00:12:25;;;;;;;;;;;16.80;99.90;;;;;;5106639;28;19974;-71
2023/10/17 00:17:18;;;;;;;;;;;16.80;99.90;;;;;;5122673;27;19907;-66
2023/10/17 00:19:45;;;;;;;;;;;16.60;99.90;;;;;;5122753;27;19920;-68
2023/10/17 00:22:23;;;;;;;;;;;16.30;99.90;;;;;;5113732;28;19908;-67
2023/10/17 00:24:58;;;;;;;;;;;16.10;99.90;;;;;;5114927;28;19907;-71
2023/10/17 00:27:24;;;;;;;;;;;15.90;99.90;;;;;;5114890;28;19908;-68
2023/10/17 00:29:51;;;;;;;;;;;15.80;99.90;;;;;;5103315;28;19919;-69
2023/10/17 00:32:17;;;;;;;;;;;15.90;99.90;;;;;;5103819;28;19916;-69
2023/10/17 00:34:46;;;;;;;;;;;15.80;99.90;;;;;;5110535;28;20302;-69
2023/10/17 00:37:19;;;;;;;;;;;15.90;99.90;;;;;;5080973;28;19919;-70
2023/10/17 00:39:47;;;;;;;;;;;15.90;99.90;;;;;;5112147;28;19927;-70
2023/10/17 00:42:34;;;;;;;;;;;16.10;99.90;;;;;;5113270;28;19915;-68
2023/10/17 00:45:01;;;;;;;;;;;16.40;99.90;;;;;;5113271;28;20355;-67
2023/10/17 00:47:27;;;;;;;;;;;16.90;99.90;;;;;;5113703;28;19919;-73
2023/10/17 00:49:55;;;;;;;;;;;17.10;99.90;;;;;;5112284;28;19920;-68
2023/10/17 00:52:34;;;;;;;;;;;17.30;99.90;;;;;;5113932;28;19915;-68
2023/10/17 00:55:03;;;;;;;;;;;17.30;99.90;;;;;;5112465;28;20020;-67
2023/10/17 00:57:30;;;;;;;;;;;17.70;99.90;;;;;;5107964;28;19934;-69
2023/10/17 00:59:57;;;;;;;;;;;17.90;99.90;;;;;;5110555;28;20411;-69
2023/10/17 01:02:24;;;;;;;;;;;18.10;99.90;;;;;;5093432;28;19912;-69
2023/10/17 01:04:52;;;;;;;;;;;18.00;99.90;;;;;;5093339;28;19915;-71
2023/10/17 01:07:52;;;;;;;;;;;17.90;99.90;;;;;;5092574;28;19916;-70
2023/10/17 01:10:18;;;;;;;;;;;18.00;99.90;;;;;;5104244;28;20313;-70
2023/10/17 01:13:03;;;;;;;;;;;18.30;99.90;;;;;;5108824;28;19908;-70
2023/10/17 01:15:35;;;;;;;;;;;18.40;99.90;;;;;;5103902;28;19907;-69
2023/10/17 01:18:04;;;;;;;;;;;18.40;99.90;;;;;;5106151;28;19923;-65
2023/10/17 01:20:31;;;;;;;;;;;18.40;99.90;;;;;;5112987;28;20334;-70
2023/10/17 01:23:00;;;;;;;;;;;18.20;99.90;;;;;;5113186;28;19915;-66
2023/10/17 01:25:35;;;;;;;;;;;18.20;99.90;;;;;;5113257;28;19911;-70
2023/10/17 01:28:03;;;;;;;;;;;18.20;99.90;;;;;;5111711;28;19938;-70
2023/10/17 01:30:30;;;;;;;;;;;18.50;99.90;;;;;;5109735;28;20014;-71
2023/10/17 01:32:59;;;;;;;;;;;18.90;99.90;;;;;;5113635;28;20002;-70
2023/10/17 01:35:26;;;;;;;;;;;19.50;99.90;;;;;;5109253;28;19969;-67
2023/10/17 01:37:55;;;;;;;;;;;19.90;99.20;;;;;;5113018;28;20367;-67
2023/10/17 01:40:27;;;;;;;;;;;20.10;98.70;;;;;;5108889;28;19920;-71
2023/10/17 01:42:57;;;;;;;;;;;20.20;97.80;;;;;;5102438;28;19920;-69
2023/10/17 01:45:25;;;;;;;;;;;20.20;97.60;;;;;;5102837;28;19962;-68
2023/10/17 01:47:52;;;;;;;;;;;19.80;98.40;;;;;;5106309;28;20018;-69
2023/10/17 01:50:19;;;;;;;;;;;19.50;99.90;;;;;;5111428;27;19911;-67
2023/10/17 01:52:46;;;;;;;;;;;19.00;99.90;;;;;;5115526;27;19912;-70
2023/10/17 01:55:16;;;;;;;;;;;18.80;99.90;;;;;;5111224;28;19912;-68
2023/10/17 01:57:46;;;;;;;;;;;18.80;99.90;;;;;;5111219;28;19912;-66
2023/10/17 02:02:59;;;;;;;;;;;19.40;99.90;;;;;;5112826;28;20046;-68
2023/10/17 02:05:26;;;;;;;;;;;19.60;99.90;;;;;;5113065;28;19991;-68
2023/10/17 02:07:55;;;;;;;;;;;19.80;99.90;;;;;;5113262;28;19911;-71
2023/10/17 02:10:25;;;;;;;;;;;20.20;99.90;;;;;;5094086;28;19912;-69
2023/10/17 02:12:52;;;;;;;;;;;20.70;99.20;;;;;;5102553;28;19998;-69
2023/10/17 02:15:24;;;;;;;;;;;20.90;98.50;;;;;;5112270;28;19931;-70
2023/10/17 02:17:52;;;;;;;;;;;20.80;98.70;;;;;;5112920;28;19953;-66
2023/10/17 02:20:29;;;;;;;;;;;21.10;98.60;;;;;;5111616;28;19931;-69
2023/10/17 02:23:02;;;;;;;;;;;21.00;97.80;;;;;;5103799;28;19927;-70
2023/10/17 02:25:41;;;;;;;;;;;20.90;98.00;;;;;;5112747;28;19908;-68
2023/10/17 02:28:08;;;;;;;;;;;20.80;98.40;;;;;;5112518;28;19943;-70
2023/10/17 02:30:34;;;;;;;;;;;20.80;98.00;;;;;;5112250;28;20661;-72
2023/10/17 02:33:10;;;;;;;;;;;20.70;98.10;;;;;;5100551;28;19908;-65
2023/10/17 02:35:41;;;;;;;;;;;20.70;96.60;;;;;;5109719;28;19915;-69
2023/10/17 02:38:08;;;;;;;;;;;20.70;96.70;;;;;;5111948;28;19912;-66
2023/10/17 02:40:34;;;;;;;;;;;21.00;95.80;;;;;;5105775;28;19911;-69
2023/10/17 02:43:01;;;;;;;;;;;21.30;95.70;;;;;;5110022;28;19908;-66
2023/10/17 02:45:28;;;;;;;;;;;21.30;95.00;;;;;;5112182;28;19908;-71
2023/10/17 02:47:56;;;;;;;;;;;21.30;95.50;;;;;;5112480;28;19920;-71
2023/10/17 02:50:42;;;;;;;;;;;21.50;95.90;;;;;;5109968;28;19912;-70
2023/10/17 02:53:14;;;;;;;;;;;22.30;95.10;;;;;;5111850;28;20421;-68
2023/10/17 02:55:41;;;;;;;;;;;23.90;91.80;;;;;;5111916;28;19914;-68
2023/10/17 02:58:08;;;;;;;;;;;25.40;87.50;;;;;;5111859;28;19912;-69
2023/10/17 03:00:35;;;;;;;;;;;26.60;83.90;;;;;;5099842;28;19916;-69
2023/10/17 03:03:12;;;;;;;;;;;27.40;80.40;;;;;;5091766;28;20344;-67
2023/10/17 03:05:40;;;;;;;;;;;27.40;77.80;;;;;;5091847;28;20291;-70
2023/10/17 03:08:10;;;;;;;;;;;26.30;78.20;;;;;;5098396;28;19911;-71
2023/10/17 03:10:40;;;;;;;;;;;24.90;80.20;;;;;;5112278;28;19953;-71
2023/10/17 03:16:32;;;;;;;;;;;22.50;86.70;;;;;;5099829;28;19912;-68
2023/10/17 03:18:37;;;;;;;;;;;21.50;89.80;;;;;;5097426;28;19972;-70
2023/10/17 03:21:08;;;;;;;;;;;20.90;90.90;;;;;;5095697;28;19916;-70
2023/10/17 03:23:34;;;;;;;;;;;20.60;92.20;;;;;;5094912;28;19912;-71
2023/10/17 03:26:01;;;;;;;;;;;20.30;92.40;;;;;;5091683;28;19953;-71
2023/10/17 03:28:28;;;;;;;;;;;20.00;93.30;;;;;;5096710;28;19912;-69
2023/10/17 03:30:54;;;;;;;;;;;19.70;94.80;;;;;;5094475;28;19919;-67
2023/10/17 03:33:27;;;;;;;;;;;19.60;94.80;;;;;;5090821;28;19912;-70
2023/10/17 03:38:31;;;;;;;;;;;19.90;94.80;;;;;;5111816;28;20056;-69
2023/10/17 03:41:15;;;;;;;;;;;20.60;94.30;;;;;;5110492;28;19960;-69
2023/10/17 03:43:51;;;;;;;;;;;21.60;92.40;;;;;;5107667;28;20360;-70
2023/10/17 03:46:19;;;;;;;;;;;22.80;90.70;;;;;;5111763;28;19938;-70
2023/10/17 03:48:57;;;;;;;;;;;23.80;88.80;;;;;;5110987;28;21478;-72
2023/10/17 03:51:26;;;;;;;;;;;24.60;83.80;;;;;;5110434;28;19912;-69
2023/10/17 03:53:53;;;;;;;;;;;24.10;83.80;;;;;;5111848;28;19915;-69
2023/10/17 03:56:24;;;;;;;;;;;23.20;86.00;;;;;;5107812;28;19912;-70
2023/10/17 03:59:16;;;;;;;;;;;22.50;88.40;;;;;;5106790;28;19916;-69
2023/10/17 04:01:48;;;;;;;;;;;21.60;88.80;;;;;;5105756;28;19954;-68
2023/10/17 04:04:30;;;;;;;;;;;21.10;90.00;;;;;;5093459;28;19970;-71
2023/10/17 04:06:57;;;;;;;;;;;20.70;90.30;;;;;;5093904;28;20330;-69
2023/10/17 04:09:27;;;;;;;;;;;20.50;91.20;;;;;;5094377;28;20280;-73
2023/10/17 04:12:03;;;;;;;;;;;20.40;91.70;;;;;;5097631;28;19923;-68
2023/10/17 04:14:33;;;;;;;;;;;20.50;92.10;;;;;;5101179;28;19911;-70
2023/10/17 04:17:02;;;;;;;;;;;20.60;91.80;;;;;;5114636;28;19907;-69
2023/10/17 04:19:39;;;;;;;;;;;20.50;91.60;;;;;;5102130;28;19916;-69
2023/10/17 04:22:14;;;;;;;;;;;20.60;91.70;;;;;;5104238;28;20457;-68
2023/10/17 04:24:45;;;;;;;;;;;20.60;91.30;;;;;;5111851;28;20295;-70
2023/10/17 04:29:43;;;;;;;;;;;20.40;91.40;;;;;;5108607;28;20398;-70
2023/10/17 04:32:15;;;;;;;;;;;20.60;91.70;;;;;;5093090;28;19911;-67
2023/10/17 04:34:48;;;;;;;;;;;22.00;90.70;;;;;;5110874;28;19912;-67
2023/10/17 04:37:24;;;;;;;;;;;23.60;85.40;;;;;;5113868;28;19930;-66
2023/10/17 04:40:09;;;;;;;;;;;24.20;82.50;;;;;;5099290;28;19942;-67
2023/10/17 04:42:56;;;;;;;;;;;24.60;81.60;;;;;;5103269;28;19912;-68
2023/10/17 04:45:28;;;;;;;;;;;25.70;79.80;;;;;;5105246;28;19912;-67
2023/10/17 04:50:58;;;;;;;;;;;25.90;77.90;;;;;;5071962;28;19916;-69
2023/10/17 04:53:35;;;;;;;;;;;24.60;81.20;;;;;;5102724;28;19911;-68
2023/10/17 04:56:16;;;;;;;;;;;23.50;83.40;;;;;;5113609;28;20376;-69
2023/10/17 04:58:53;;;;;;;;;;;22.50;84.50;;;;;;5108229;28;19916;-66
2023/10/17 05:04:33;;;;;;;;;;;21.70;89.30;;;;;;5030356;28;20044;-67
2023/10/17 06:17:53;;;;;;;;;;;17.90;99.90;;;;;;5091899;28;20046;-68
2023/10/17 06:20:27;;;;;;;;;;;17.70;99.90;;;;;;5092458;28;19916;-65
2023/10/17 06:26:46;;;;;;;;;;;17.60;99.90;;;;;;5105970;28;19919;-67
2023/10/17 06:28:34;;;;;;;;;;;17.80;99.90;;;;;;5111337;28;19908;-66
2023/10/17 06:31:54;;;;;;;;;;;18.60;99.90;;;;;;5106891;28;19972;-70
2023/10/17 06:34:21;;;;;;;;;;;19.50;99.90;;;;;;5092015;28;19915;-68
2023/10/17 06:36:59;;;;;;;;;;;20.00;99.90;;;;;;5091927;28;19919;-67
2023/10/17 06:39:36;;;;;;;;;;;19.60;99.90;;;;;;5092456;28;19962;-68
2023/10/17 06:42:15;;;;;;;;;;;19.10;99.90;;;;;;5092109;28;20314;-66
2023/10/17 06:45:01;;;;;;;;;;;18.70;99.90;;;;;;5091866;28;19908;-68
2023/10/17 06:47:41;;;;;;;;;;;18.10;99.90;;;;;;5091974;28;19916;-65
2023/10/17 06:55:44;;;;;;;;;;;17.10;99.90;;;;;;5099023;28;19955;-64
2023/10/17 06:58:10;;;;;;;;;;;17.00;99.90;;;;;;5106208;28;19919;-68
2023/10/17 07:00:50;;;;;;;;;;;16.80;99.90;;;;;;5110169;28;19920;-67
2023/10/17 07:03:24;;;;;;;;;;;16.70;99.90;;;;;;5103011;28;19979;-67
2023/10/17 07:06:04;;;;;;;;;;;16.60;99.90;;;;;;5109743;28;19919;-69
2023/10/17 07:08:36;;;;;;;;;;;16.50;99.90;;;;;;5110730;28;20324;-68
2023/10/17 07:14:26;;;;;;;;;;;16.40;99.90;;;;;;5108729;28;20413;-66
2023/10/17 07:16:48;;;;;;;;;;;16.30;99.90;;;;;;5101489;28;19912;-66
2023/10/17 07:24:33;;;;;;;;;;;16.10;99.90;;;;;;5112348;28;19908;-70
2023/10/17 07:27:26;;;;;;;;;;;16.10;99.90;;;;;;5112243;28;19912;-67
2023/10/17 07:32:46;;;;;;;;;;;16.00;99.90;;;;;;5072230;28;20369;-66
2023/10/17 07:35:22;;;;;;;;;;;15.90;99.90;;;;;;5105982;28;19950;-67
2023/10/17 07:37:56;;;;;;;;;;;15.90;99.90;;;;;;5096352;28;19908;-67
2023/10/17 07:41:09;;;;;;;;;;;15.70;99.90;;;;;;5129128;27;19919;-69
2023/10/17 07:43:21;;;;;;;;;;;15.70;99.90;;;;;;5133734;27;19938;-70
2023/10/17 07:46:06;;;;;;;;;;;15.70;99.90;;;;;;5115926;27;19970;-66
2023/10/17 07:48:34;;;;;;;;;;;15.70;99.90;;;;;;5095514;27;19963;-69
2023/10/17 07:51:04;;;;;;;;;;;15.60;99.90;;;;;;5115966;28;19916;-67
2023/10/17 07:53:32;;;;;;;;;;;15.60;99.90;;;;;;5115688;28;19914;-67
2023/10/17 07:56:06;;;;;;;;;;;15.50;99.90;;;;;;5077119;28;19958;-67
2023/10/17 07:58:45;;;;;;;;;;;15.40;99.90;;;;;;5095037;28;19916;-70
2023/10/17 08:01:16;;;;;;;;;;;15.30;99.90;;;;;;5095315;28;20289;-68
2023/10/17 08:03:57;;;;;;;;;;;15.20;99.90;;;;;;5096415;27;20268;-69
2023/10/17 08:06:29;;;;;;;;;;;15.20;99.90;;;;;;5100183;28;19947;-66
2023/10/17 08:08:58;;;;;;;;;;;15.20;99.90;;;;;;5079929;27;20015;-67
2023/10/17 08:11:31;;;;;;;;;;;15.20;99.90;;;;;;5115355;28;19967;-72
2023/10/17 08:14:09;;;;;;;;;;;15.10;99.90;;;;;;5115311;27;19938;-69
2023/10/17 08:16:40;;;;;;;;;;;15.00;99.90;;;;;;5101744;28;19912;-68
2023/10/17 08:19:16;;;;;;;;;;;15.00;99.90;;;;;;5112183;28;19912;-69
2023/10/17 08:24:29;;;;;;;;;;;15.00;99.90;;;;;;5115881;27;20310;-68
2023/10/17 08:29:45;;;;;;;;;;;14.90;99.90;;;;;;5115480;28;20093;-69
2023/10/17 08:35:08;;;;;;;;;;;14.90;99.90;;;;;;5115774;28;20307;-71
2023/10/17 08:37:43;;;;;;;;;;;14.90;99.90;;;;;;5112114;28;20339;-68
2023/10/17 08:42:56;;;;;;;;;;;14.80;99.90;;;;;;5115538;28;19914;-73
2023/10/17 08:45:26;;;;;;;;;;;14.70;99.90;;;;;;5097129;28;20292;-72
2023/10/17 08:48:00;;;;;;;;;;;14.60;99.90;;;;;;5115043;28;19915;-67
2023/10/17 08:50:31;;;;;;;;;;;14.70;99.90;;;;;;5093919;28;19909;-68
2023/10/17 08:53:02;;;;;;;;;;;14.60;99.90;;;;;;5094364;28;19908;-67
2023/10/17 08:55:29;;;;;;;;;;;14.60;99.90;;;;;;5094412;28;19919;-66
2023/10/17 08:57:55;;;;;;;;;;;14.60;99.90;;;;;;5094809;28;19958;-69
2023/10/17 09:00:38;;;;;;;;;;;14.70;99.90;;;;;;5094892;28;20027;-73
2023/10/17 09:03:09;;;;;;;;;;;14.60;99.90;;;;;;5095401;28;19915;-71
2023/10/17 09:06:06;;;;;;;;;;;14.70;99.90;;;;;;5094819;28;19908;-72
2023/10/17 09:11:14;;;;;;;;;;;14.60;99.90;;;;;;5094894;28;19944;-68
2023/10/17 09:16:16;;;;;;;;;;;14.70;99.90;;;;;;5094230;28;19908;-67
2023/10/17 09:18:54;;;;;;;;;;;14.80;99.90;;;;;;5094361;28;20871;-70
2023/10/17 09:21:20;;;;;;;;;;;14.70;99.90;;;;;;5094364;28;19912;-71
2023/10/17 09:23:47;;;;;;;;;;;14.70;99.90;;;;;;5094427;28;19909;-75
2023/10/17 09:26:25;;;;;;;;;;;14.80;99.90;;;;;;5097646;28;20385;-70
2023/10/17 09:29:00;;;;;;;;;;;14.80;99.90;;;;;;5108811;28;19911;-69
2023/10/17 09:31:26;;;;;;;;;;;14.80;99.90;;;;;;5106291;28;19919;-72
2023/10/17 09:33:56;;;;;;;;;;;14.80;99.90;;;;;;5112808;27;20009;-72
2023/10/17 09:36:25;;;;;;;;;;;14.70;99.90;;;;;;5098502;28;19908;-72
2023/10/17 09:38:54;;;;;;;;;;;14.70;99.90;;;;;;5114631;28;20015;-71
2023/10/17 09:41:21;;;;;;;;;;;14.60;99.90;;;;;;5113468;28;19911;-73
2023/10/17 09:43:53;;;;;;;;;;;14.50;99.90;;;;;;5087285;28;20462;-73
2023/10/17 09:46:23;;;;;;;;;;;14.50;99.90;;;;;;5113922;28;20288;-69
2023/10/17 09:48:51;;;;;;;;;;;14.50;99.90;;;;;;5113830;28;19932;-69
2023/10/17 09:51:22;;;;;;;;;;;14.60;99.90;;;;;;5106105;28;19966;-68
2023/10/17 09:54:00;;;;;;;;;;;14.50;99.90;;;;;;5105171;28;19919;-70
2023/10/17 09:56:31;;;;;;;;;;;14.50;99.90;;;;;;5113352;28;19961;-69
2023/10/17 09:59:02;;;;;;;;;;;14.60;99.90;;;;;;5113489;28;19919;-71
2023/10/17 10:01:31;;;;;;;;;;;14.60;99.90;;;;;;5112896;28;19916;-71
2023/10/17 10:04:01;;;;;;;;;;;14.70;99.90;;;;;;5112274;28;20345;-69
2023/10/17 10:06:31;;;;;;;;;;;14.70;99.90;;;;;;5112039;28;19919;-71
2023/10/17 10:09:13;;;;;;;;;;;14.60;99.90;;;;;;5111530;28;19920;-72
2023/10/17 10:11:48;;;;;;;;;;;14.60;99.90;;;;;;5111808;28;19908;-68
2023/10/17 10:14:36;;;;;;;;;;;14.70;99.90;;;;;;5112715;28;19908;-69
2023/10/17 10:17:04;;;;;;;;;;;14.70;99.90;;;;;;5110217;28;19999;-71
2023/10/17 10:19:46;;;;;;;;;;;14.70;99.90;;;;;;5112694;28;19980;-70
2023/10/17 10:22:13;;;;;;;;;;;14.70;99.90;;;;;;5111803;28;19908;-68
2023/10/17 10:24:41;;;;;;;;;;;14.70;99.90;;;;;;5112899;28;20404;-69
2023/10/17 10:27:18;;;;;;;;;;;14.60;99.90;;;;;;5112998;28;19908;-70
2023/10/17 10:29:52;;;;;;;;;;;14.60;99.90;;;;;;5110390;28;20069;-71
2023/10/17 10:32:39;;;;;;;;;;;14.60;99.90;;;;;;5112423;28;19952;-72
2023/10/17 10:35:06;;;;;;;;;;;14.60;99.90;;;;;;5110207;28;19933;-71
2023/10/17 10:37:48;;;;;;;;;;;14.60;99.90;;;;;;5112793;28;19907;-74
2023/10/17 10:40:22;;;;;;;;;;;14.60;99.90;;;;;;5111531;28;19916;-75
2023/10/17 10:42:58;;;;;;;;;;;14.60;99.90;;;;;;5110780;28;20104;-71
2023/10/17 10:48:17;;;;;;;;;;;14.60;99.90;;;;;;5111473;28;19926;-71
2023/10/17 10:50:48;;;;;;;;;;;14.50;99.90;;;;;;5109620;28;19912;-73
2023/10/17 10:53:35;;;;;;;;;;;14.50;99.90;;;;;;5111986;28;20003;-74
2023/10/17 10:56:03;;;;;;;;;;;14.40;99.90;;;;;;5112438;28;20006;-71
2023/10/17 10:58:35;;;;;;;;;;;14.40;99.90;;;;;;5112500;28;20471;-69
2023/10/17 11:01:03;;;;;;;;;;;14.40;99.90;;;;;;5110011;28;19915;-70
2023/10/17 11:03:31;;;;;;;;;;;14.50;99.90;;;;;;5115873;28;19983;-73
2023/10/17 11:05:58;;;;;;;;;;;14.50;99.90;;;;;;5118921;28;19915;-68
2023/10/17 11:08:26;;;;;;;;;;;14.50;99.90;;;;;;5118907;28;19931;-73
2023/10/17 11:10:59;;;;;;;;;;;14.50;99.90;;;;;;5119197;28;19943;-75
2023/10/17 11:13:33;;;;;;;;;;;14.50;99.90;;;;;;5117213;28;19908;-72
2023/10/17 11:15:59;;;;;;;;;;;14.50;99.90;;;;;;5119266;28;20356;-71
2023/10/17 11:18:27;;;;;;;;;;;14.50;99.90;;;;;;5119257;28;20361;-67
2023/10/17 11:20:55;;;;;;;;;;;14.50;99.90;;;;;;5119317;28;19920;-70
2023/10/17 11:23:32;;;;;;;;;;;14.50;99.90;;;;;;5116306;28;19951;-73
2023/10/17 11:26:03;;;;;;;;;;;14.50;99.90;;;;;;5119081;28;19998;-74
2023/10/17 11:28:30;;;;;;;;;;;14.60;99.90;;;;;;5119758;28;19911;-74
2023/10/17 11:31:05;;;;;;;;;;;14.50;99.90;;;;;;5119907;28;19914;-72
2023/10/17 11:33:47;;;;;;;;;;;14.30;99.90;;;;;;5119734;28;19953;-71
2023/10/17 11:36:19;;;;;;;;;;;14.30;99.90;;;;;;5119250;28;19958;-74
2023/10/17 11:38:53;;;;;;;;;;;14.30;99.90;;;;;;5119217;28;19916;-70
2023/10/17 11:41:20;;;;;;;;;;;14.30;99.90;;;;;;5119390;28;20368;-71
2023/10/17 11:43:54;;;;;;;;;;;14.40;99.90;;;;;;5119462;28;19915;-71
2023/10/17 11:46:30;;;;;;;;;;;14.40;99.90;;;;;;5119582;28;19908;-74
2023/10/17 11:49:39;;;;;;;;;;;14.40;99.90;;;;;;5119094;28;20002;-72
2023/10/17 11:52:10;;;;;;;;;;;14.40;99.90;;;;;;5119233;28;20002;-71
2023/10/17 11:54:55;;;;;;;;;;;14.20;99.90;;;;;;5119201;28;19995;-72
2023/10/17 11:57:25;;;;;;;;;;;14.20;99.90;;;;;;5119258;28;20374;-70
2023/10/17 11:59:58;;;;;;;;;;;14.10;99.90;;;;;;5118906;28;20478;-73
2023/10/17 12:02:25;;;;;;;;;;;14.20;99.90;;;;;;5119374;28;19918;-70
2023/10/17 12:04:53;;;;;;;;;;;14.20;99.90;;;;;;5119271;28;20424;-73
2023/10/17 12:07:19;;;;;;;;;;;14.30;99.90;;;;;;5119088;28;19908;-72
2023/10/17 12:09:46;;;;;;;;;;;14.30;99.90;;;;;;5119227;28;19908;-73
2023/10/17 12:12:18;;;;;;;;;;;14.40;99.90;;;;;;5119046;28;20348;-72
2023/10/17 12:14:47;;;;;;;;;;;14.40;99.90;;;;;;5116906;28;19930;-70
2023/10/17 12:17:18;;;;;;;;;;;14.30;99.90;;;;;;5115673;28;19908;-71
2023/10/17 12:19:46;;;;;;;;;;;14.40;99.90;;;;;;5115966;28;19916;-72
2023/10/17 12:22:13;;;;;;;;;;;14.40;99.90;;;;;;5115601;28;19912;-71
2023/10/17 12:24:39;;;;;;;;;;;14.40;99.90;;;;;;5116105;28;19907;-74
2023/10/17 12:27:07;;;;;;;;;;;14.50;99.90;;;;;;5115982;28;19908;-67
2023/10/17 12:29:34;;;;;;;;;;;14.50;99.90;;;;;;5115720;28;19931;-68
2023/10/17 12:32:01;;;;;;;;;;;14.50;99.90;;;;;;5115523;28;19936;-67
2023/10/17 12:34:28;;;;;;;;;;;14.60;99.90;;;;;;5115212;28;19918;-69
2023/10/17 12:36:55;;;;;;;;;;;14.50;99.90;;;;;;5115576;28;20357;-67
2023/10/17 12:39:21;;;;;;;;;;;14.50;99.90;;;;;;5115760;28;19916;-68
2023/10/17 12:41:49;;;;;;;;;;;14.60;99.90;;;;;;5115446;28;19912;-68
2023/10/17 12:44:18;;;;;;;;;;;14.60;99.90;;;;;;5115726;28;19932;-68
2023/10/17 12:46:46;;;;;;;;;;;14.40;99.90;;;;;;5097350;28;20279;-67
2023/10/17 12:49:14;;;;;;;;;;;14.40;99.90;;;;;;5114949;28;19919;-70
2023/10/17 12:51:43;;;;;;;;;;;14.30;99.90;;;;;;5115062;28;19908;-70
2023/10/17 12:54:10;;;;;;;;;;;14.40;99.90;;;;;;5115475;28;19908;-72
2023/10/17 12:56:37;;;;;;;;;;;14.30;99.90;;;;;;5115294;28;19908;-70
2023/10/17 12:59:04;;;;;;;;;;;14.40;99.90;;;;;;5115317;28;19916;-72
2023/10/17 13:01:30;;;;;;;;;;;14.40;99.90;;;;;;5115079;28;19959;-73
2023/10/17 13:04:00;;;;;;;;;;;14.10;99.90;;;;;;5114859;28;20288;-70
2023/10/17 13:06:27;;;;;;;;;;;14.30;99.90;;;;;;5115199;28;20360;-72
2023/10/17 13:08:56;;;;;;;;;;;14.20;99.90;;;;;;5114970;28;19911;-68
2023/10/17 13:11:26;;;;;;;;;;;14.20;99.90;;;;;;5114693;28;19919;-72
2023/10/17 13:13:53;;;;;;;;;;;14.20;99.90;;;;;;5115195;28;19907;-70
2023/10/17 13:16:26;;;;;;;;;;;14.20;99.90;;;;;;5115041;28;19907;-71
2023/10/17 13:18:56;;;;;;;;;;;14.10;99.90;;;;;;5114983;28;20317;-72
2023/10/17 13:21:23;;;;;;;;;;;14.20;99.90;;;;;;5114752;28;19965;-72
2023/10/17 13:23:50;;;;;;;;;;;14.00;99.90;;;;;;5114819;28;20364;-71
2023/10/17 13:26:19;;;;;;;;;;;14.10;99.90;;;;;;5114571;28;19915;-67
2023/10/17 13:28:45;;;;;;;;;;;14.10;99.90;;;;;;5114500;28;19907;-73
2023/10/17 13:31:14;;;;;;;;;;;14.10;99.90;;;;;;5114654;28;19962;-74
2023/10/17 13:33:49;;;;;;;;;;;14.20;99.90;;;;;;5114564;28;19904;-68
2023/10/17 13:36:20;;;;;;;;;;;14.20;99.90;;;;;;5114590;28;19912;-74
2023/10/17 13:38:46;;;;;;;;;;;14.20;99.90;;;;;;5096039;28;19919;-75
2023/10/17 13:41:16;;;;;;;;;;;14.10;99.90;;;;;;5114201;28;19947;-72
2023/10/17 13:43:47;;;;;;;;;;;14.20;99.90;;;;;;5114448;28;19912;-72
2023/10/17 13:46:16;;;;;;;;;;;14.10;99.90;;;;;;5113879;28;19908;-73
2023/10/17 13:48:49;;;;;;;;;;;14.10;99.90;;;;;;5113910;28;20437;-74
2023/10/17 13:51:16;;;;;;;;;;;14.10;99.90;;;;;;5113996;28;19912;-73
2023/10/17 13:53:44;;;;;;;;;;;14.00;99.90;;;;;;5113799;28;19915;-71
2023/10/17 13:56:15;;;;;;;;;;;14.00;99.90;;;;;;5113899;28;19914;-73
2023/10/17 13:58:42;;;;;;;;;;;14.00;99.90;;;;;;5113863;28;19943;-70
2023/10/17 14:04:13;;;;;;;;;;;14.00;99.90;;;;;;5051114;28;19909;-71
2023/10/17 14:06:42;;;;;;;;;;;13.90;99.90;;;;;;5050995;28;19915;-71
2023/10/17 14:09:15;;;;;;;;;;;13.90;99.90;;;;;;5081809;28;19908;-72
2023/10/17 14:11:48;;;;;;;;;;;14.00;99.90;;;;;;5113880;28;19908;-74
2023/10/17 14:14:15;;;;;;;;;;;14.00;99.90;;;;;;5113841;28;19915;-69
2023/10/17 14:16:41;;;;;;;;;;;14.00;99.90;;;;;;5113881;28;19961;-71
2023/10/17 14:27:41;;;;;;;;;;;13.80;99.90;;;;;;5113502;28;20003;-71
2023/10/17 14:30:06;;;;;;;;;;;13.70;99.90;;;;;;5112828;28;19908;-73
2023/10/17 14:32:36;;;;;;;;;;;13.70;99.90;;;;;;5113463;28;19908;-72
2023/10/17 14:35:04;;;;;;;;;;;13.70;99.90;;;;;;5113674;28;19908;-69
2023/10/17 14:37:30;;;;;;;;;;;13.70;99.90;;;;;;5113143;28;19960;-69
2023/10/17 14:39:57;;;;;;;;;;;13.70;99.90;;;;;;5113042;28;19916;-74
2023/10/17 14:42:27;;;;;;;;;;;13.80;99.90;;;;;;5113167;28;20349;-75
2023/10/17 14:44:55;;;;;;;;;;;13.80;99.90;;;;;;5113482;28;20268;-73
2023/10/17 14:47:22;;;;;;;;;;;13.80;99.90;;;;;;5095085;28;20318;-72
2023/10/17 14:49:49;;;;;;;;;;;13.90;99.90;;;;;;5113417;28;19916;-72
2023/10/17 14:52:16;;;;;;;;;;;13.90;99.90;;;;;;5113195;28;19990;-74
2023/10/17 14:54:43;;;;;;;;;;;14.00;99.90;;;;;;5113330;28;19911;-67
2023/10/17 14:57:10;;;;;;;;;;;14.00;99.90;;;;;;5113376;28;19960;-74
2023/10/17 14:59:40;;;;;;;;;;;14.00;99.90;;;;;;5112980;28;20551;-68
2023/10/17 15:02:07;;;;;;;;;;;14.10;99.90;;;;;;5113302;28;19911;-67
2023/10/17 15:04:37;;;;;;;;;;;14.00;99.90;;;;;;5113203;28;20317;-71
2023/10/17 15:07:04;;;;;;;;;;;14.10;99.90;;;;;;5113027;28;20322;-68
2023/10/17 15:09:30;;;;;;;;;;;14.10;99.90;;;;;;5113700;28;19994;-67
2023/10/17 15:11:57;;;;;;;;;;;14.10;99.90;;;;;;5113574;28;19915;-70
2023/10/17 15:14:24;;;;;;;;;;;14.20;99.90;;;;;;5113051;28;19907;-67
2023/10/17 15:16:50;;;;;;;;;;;14.10;99.90;;;;;;5113520;28;19954;-71
2023/10/17 15:19:17;;;;;;;;;;;14.10;99.90;;;;;;5113156;28;19923;-76
2023/10/17 15:21:44;;;;;;;;;;;14.10;99.90;;;;;;5113457;28;19915;-73
2023/10/17 15:24:12;;;;;;;;;;;14.20;99.90;;;;;;5112930;28;20279;-69
2023/10/17 15:26:39;;;;;;;;;;;14.20;99.90;;;;;;5112806;28;20004;-74
2023/10/17 15:29:06;;;;;;;;;;;14.10;99.90;;;;;;5112656;28;20372;-72
2023/10/17 15:31:33;;;;;;;;;;;14.10;99.90;;;;;;5112912;28;19908;-71
2023/10/17 15:34:00;;;;;;;;;;;14.20;99.90;;;;;;5112809;28;19912;-71
2023/10/17 15:36:29;;;;;;;;;;;14.10;99.90;;;;;;5112995;28;19912;-72
2023/10/17 15:38:56;;;;;;;;;;;14.00;99.90;;;;;;5113128;28;19912;-74
2023/10/17 15:41:22;;;;;;;;;;;14.10;99.90;;;;;;5113228;28;19911;-75
2023/10/17 15:43:50;;;;;;;;;;;14.00;99.90;;;;;;5113045;28;19904;-70
2023/10/17 15:46:16;;;;;;;;;;;14.00;99.90;;;;;;5113617;28;19907;-72
2023/10/17 15:48:43;;;;;;;;;;;14.10;99.90;;;;;;5113211;28;20326;-76
2023/10/17 15:51:10;;;;;;;;;;;14.00;99.90;;;;;;5116307;28;19908;-71
2023/10/17 15:53:37;;;;;;;;;;;14.00;99.90;;;;;;5117457;28;20284;-72
2023/10/17 15:56:04;;;;;;;;;;;14.00;99.90;;;;;;5117623;28;19967;-70
2023/10/17 15:58:31;;;;;;;;;;;14.00;99.90;;;;;;5117439;28;19907;-70
2023/10/17 16:00:58;;;;;;;;;;;13.90;99.90;;;;;;5117504;28;19911;-76
2023/10/17 16:03:26;;;;;;;;;;;13.90;99.90;;;;;;5118619;28;19914;-73
2023/10/17 16:05:54;;;;;;;;;;;13.90;99.90;;;;;;5117279;28;20361;-75
2023/10/17 16:08:21;;;;;;;;;;;13.80;99.90;;;;;;5117155;28;19943;-77
2023/10/17 16:10:56;;;;;;;;;;;13.80;99.90;;;;;;5116963;28;19908;-74
2023/10/17 16:13:23;;;;;;;;;;;13.70;99.90;;;;;;5116877;28;19947;-73
2023/10/17 16:15:56;;;;;;;;;;;13.70;99.90;;;;;;5117356;28;19912;-73
2023/10/17 16:18:22;;;;;;;;;;;13.70;99.90;;;;;;5116948;28;19908;-67
2023/10/17 16:20:49;;;;;;;;;;;13.60;99.90;;;;;;5116605;28;19916;-69
2023/10/17 16:23:18;;;;;;;;;;;13.60;99.90;;;;;;5118396;28;20356;-77
2023/10/17 16:25:49;;;;;;;;;;;13.50;99.90;;;;;;5117275;28;19908;-72
2023/10/17 16:28:19;;;;;;;;;;;13.40;99.90;;;;;;5116543;28;19908;-68
2023/10/17 16:30:47;;;;;;;;;;;13.50;99.90;;;;;;5116709;28;19908;-76
2023/10/17 16:33:14;;;;;;;;;;;13.50;99.90;;;;;;5116478;28;19919;-76
2023/10/17 16:35:50;;;;;;;;;;;13.50;99.90;;;;;;5116117;28;19908;-71
2023/10/17 16:38:16;;;;;;;;;;;13.50;99.90;;;;;;5116134;28;19908;-72
2023/10/17 16:40:43;;;;;;;;;;;13.50;99.90;;;;;;5116714;28;20299;-75
2023/10/17 16:43:10;;;;;;;;;;;13.50;99.90;;;;;;5116353;28;19915;-74
2023/10/17 16:45:37;;;;;;;;;;;13.60;99.90;;;;;;5116182;28;20272;-73
2023/10/17 16:48:07;;;;;;;;;;;13.60;99.90;;;;;;5115993;28;20295;-74
2023/10/17 16:50:37;;;;;;;;;;;13.60;99.90;;;;;;5115500;28;20259;-73
2023/10/17 16:53:03;;;;;;;;;;;13.60;99.90;;;;;;5116366;28;19911;-76
2023/10/17 16:55:31;;;;;;;;;;;13.60;99.90;;;;;;5116649;28;19908;-73
2023/10/17 16:57:57;;;;;;;;;;;13.50;99.90;;;;;;5117559;28;19908;-77
2023/10/17 17:00:27;;;;;;;;;;;13.60;99.90;;;;;;5117649;28;19922;-74